Time;durP1;ratioP1;P1;durP2;ratioP2;P2;SDS_P1;SDS_P2;PMS_P1;PMS_P2;Temp;Humidity;BMP_temperature;BMP_pressure;BME280_temperature;BME280_humidity;BME280_pressure;Samples;Min_cycle;Max_cycle;Signal;HPM_P1;HPM_P2
2022/05/09 00:00:39;;;;;;;;;19.75;15.00;;;;;18.07;50.87;102302.94;2399942;28;44707;-82
2022/05/09 00:01:50;;;;;;;;;15.50;15.50;;;;;18.06;51.14;102304.75;2395749;28;45322;-83
2022/05/09 00:03:01;;;;;;;;;16.75;16.50;;;;;18.05;51.14;102302.16;2401625;28;45288;-83
2022/05/09 00:04:11;;;;;;;;;17.25;16.00;;;;;18.06;50.95;102306.53;2402237;28;47371;-83
2022/05/09 00:05:25;;;;;;;;;19.50;18.00;;;;;18.08;50.99;102304.66;2402793;28;44723;-83
2022/05/09 00:06:35;;;;;;;;;16.25;14.00;;;;;18.11;50.74;102312.53;2394872;28;46303;-83
2022/05/09 00:07:46;;;;;;;;;14.25;13.75;;;;;18.09;51.50;102303.75;2393746;28;45323;-84
2022/05/09 00:08:56;;;;;;;;;17.75;15.00;;;;;18.11;51.42;102291.25;2384717;28;47073;-83
2022/05/09 00:10:08;;;;;;;;;18.00;16.50;;;;;18.13;51.11;102300.03;2395322;28;44566;-83
2022/05/09 00:11:18;;;;;;;;;19.00;16.00;;;;;18.14;51.65;102301.78;2392863;28;47076;-84
2022/05/09 00:12:30;;;;;;;;;16.25;14.50;;;;;18.15;51.03;102298.16;2395803;28;45357;-84
2022/05/09 00:13:41;;;;;;;;;21.00;18.50;;;;;18.17;50.88;102301.66;2402334;28;46619;-83
2022/05/09 00:14:51;;;;;;;;;19.75;13.50;;;;;18.16;51.20;102302.56;2397348;28;45469;-84
2022/05/09 00:16:02;;;;;;;;;18.75;16.25;;;;;18.19;50.95;102304.25;2393548;28;45377;-84
2022/05/09 00:17:12;;;;;;;;;21.25;17.00;;;;;18.21;50.67;102302.41;2383682;28;45243;-85
2022/05/09 00:18:22;;;;;;;;;17.50;15.50;;;;;18.19;51.12;102296.28;2388534;28;46176;-85
2022/05/09 00:19:33;;;;;;;;;16.00;14.75;;;;;18.21;51.32;102297.97;2393135;28;45248;-88
2022/05/09 00:20:43;;;;;;;;;16.25;15.25;;;;;18.24;51.22;102306.75;2388099;28;46613;-84
2022/05/09 00:21:54;;;;;;;;;19.75;15.25;;;;;18.25;50.65;102305.84;2401642;28;45755;-90
2022/05/09 00:23:04;;;;;;;;;17.00;15.25;;;;;18.26;50.51;102302.22;2397649;28;47328;-91
2022/05/09 00:24:17;;;;;;;;;16.75;14.00;;;;;18.26;50.79;102299.56;2395583;28;45315;-90
2022/05/09 00:25:27;;;;;;;;;19.00;16.25;;;;;18.25;50.84;102297.84;2392349;28;47904;-90
2022/05/09 00:26:38;;;;;;;;;15.25;13.25;;;;;18.24;50.51;102298.78;2395668;28;45368;-90
2022/05/09 00:27:48;;;;;;;;;14.25;13.25;;;;;18.24;50.51;102296.97;2402151;28;47973;-89
2022/05/09 00:29:02;;;;;;;;;19.25;16.00;;;;;18.26;50.90;102296.91;2401820;28;45337;-89
2022/05/09 00:30:14;;;;;;;;;17.00;15.25;;;;;18.27;51.31;102296.00;2392883;28;47091;-90
2022/05/09 00:31:25;;;;;;;;;18.50;17.50;;;;;18.27;51.31;102296.00;2392927;28;45314;-90
2022/05/09 00:32:35;;;;;;;;;15.50;14.50;;;;;18.26;51.34;102303.09;2383479;28;48288;-89
2022/05/09 00:33:45;;;;;;;;;15.75;14.75;;;;;18.24;51.25;102291.66;2387271;28;45228;-89
2022/05/09 00:34:56;;;;;;;;;17.50;14.50;;;;;18.26;50.96;102297.78;2383312;28;48204;-89
2022/05/09 00:36:06;;;;;;;;;14.50;13.75;;;;;18.24;51.06;102298.78;2386176;28;45212;-93
2022/05/09 00:37:17;;;;;;;;;20.00;15.50;;;;;18.22;50.67;102296.19;2385669;28;47290;-93
2022/05/09 00:38:28;;;;;;;;;13.50;12.00;;;;;18.22;50.85;102296.19;2392383;28;44768;-92
2022/05/09 00:39:38;;;;;;;;;18.00;14.00;;;;;18.20;50.54;102300.69;2386245;28;47906;-89
2022/05/09 00:42:19;;;;;;;;;14.25;14.25;;;;;18.16;50.74;102291.94;2402503;28;45772;-89
2022/05/09 00:43:37;;;;;;;;;15.25;13.25;;;;;18.16;50.14;102299.03;2392820;28;45446;-89
2022/05/09 00:44:47;;;;;;;;;14.25;12.25;;;;;18.13;50.69;102288.53;2390308;28;47126;-91
2022/05/09 00:45:58;;;;;;;;;18.75;14.25;;;;;18.11;50.32;102296.56;2386881;28;45427;-90
2022/05/09 00:47:08;;;;;;;;;14.25;14.25;;;;;18.09;50.70;102295.78;2395533;28;45330;-88
2022/05/09 00:48:19;;;;;;;;;15.50;13.75;;;;;18.11;50.55;102291.25;2392631;28;44754;-92
2022/05/09 00:49:36;;;;;;;;;14.75;14.25;;;;;18.10;50.59;102289.50;2395505;28;48051;-92
2022/05/09 00:50:46;;;;;;;;;17.25;15.00;;;;;18.10;51.03;102295.69;2392955;28;45244;-92
2022/05/09 00:52:18;;;;;;;;;15.25;14.50;;;;;18.13;50.48;102293.84;2386193;28;47164;-93
2022/05/09 00:53:31;;;;;;;;;14.75;12.00;;;;;18.09;50.29;102288.66;2383861;28;45355;-93
2022/05/09 00:54:47;;;;;;;;;14.25;13.25;;;;;18.09;50.38;102288.66;2389490;28;47257;-92
2022/05/09 00:56:06;;;;;;;;;15.00;14.00;;;;;18.09;50.15;102293.13;2392849;28;45334;-91
2022/05/09 00:57:51;;;;;;;;;14.50;14.50;;;;;18.08;50.49;102291.38;2383524;28;47281;-87
2022/05/09 00:59:07;;;;;;;;;14.25;12.50;;;;;18.07;50.59;102294.97;2390709;28;45360;-87
2022/05/09 01:00:20;;;;;;;;;14.00;13.75;;;;;18.08;50.41;102302.00;2387604;28;48289;-86
2022/05/09 01:01:30;;;;;;;;;18.00;14.50;;;;;18.07;50.09;102293.19;2394740;28;44707;-86
2022/05/09 01:02:46;;;;;;;;;14.50;13.75;;;;;18.05;50.52;102299.50;2402264;28;45440;-86
2022/05/09 01:04:27;;;;;;;;;15.25;15.25;;;;;18.04;50.07;102287.97;2401275;28;44771;-85
2022/05/09 01:05:38;;;;;;;;;14.75;12.25;;;;;18.04;50.02;102289.78;2402615;28;45345;-85
2022/05/09 01:06:48;;;;;;;;;14.50;13.50;;;;;18.05;49.86;102287.03;2399895;28;45551;-85
2022/05/09 01:07:59;;;;;;;;;14.50;12.00;;;;;18.03;49.71;102293.34;2401589;28;47244;-84
2022/05/09 01:09:12;;;;;;;;;15.00;13.25;;;;;17.99;49.86;102288.16;2392487;28;45448;-84
2022/05/09 01:10:31;;;;;;;;;16.25;14.00;;;;;17.95;50.34;102291.84;2391081;28;46804;-83
2022/05/09 01:11:44;;;;;;;;;18.50;14.00;;;;;17.96;50.39;102290.94;2395594;28;45376;-87
2022/05/09 01:12:54;;;;;;;;;16.00;14.25;;;;;17.95;49.94;102289.19;2399995;28;47570;-88
2022/05/09 01:14:11;;;;;;;;;15.00;13.25;;;;;17.95;50.42;102291.00;2383363;28;45244;-88
2022/05/09 01:15:22;;;;;;;;;15.50;15.00;;;;;17.93;49.89;102288.41;2386720;28;46528;-88
2022/05/09 01:16:34;;;;;;;;;19.75;10.50;;;;;17.92;50.09;102286.69;2387164;28;45268;-88
2022/05/09 01:17:49;;;;;;;;;12.75;12.75;;;;;17.93;50.27;102292.84;2395405;28;46532;-87
2022/05/09 01:19:06;;;;;;;;;18.75;15.50;;;;;17.92;50.03;102291.13;2397381;28;45552;-86
2022/05/09 01:20:17;;;;;;;;;16.25;14.25;;;;;17.91;49.82;102294.69;2398352;28;45652;-87
2022/05/09 01:21:30;;;;;;;;;14.00;12.75;;;;;17.92;50.04;102294.66;2392566;28;45267;-87
2022/05/09 01:22:41;;;;;;;;;14.50;13.25;;;;;17.91;50.26;102292.91;2385205;28;48040;-86
2022/05/09 01:23:52;;;;;;;;;15.25;11.50;;;;;17.90;49.86;102299.19;2395672;28;45417;-87
2022/05/09 01:25:06;;;;;;;;;13.50;12.25;;;;;17.88;49.69;102287.72;2383975;28;48512;-87
2022/05/09 01:26:16;;;;;;;;;11.50;10.50;;;;;17.84;49.93;102291.44;2390552;28;45216;-86
2022/05/09 01:27:27;;;;;;;;;14.00;13.00;;;;;17.81;49.99;102292.41;2392306;28;47488;-88
2022/05/09 01:28:38;;;;;;;;;14.25;13.50;;;;;17.77;49.99;102289.03;2383324;28;45304;-87
2022/05/09 01:30:08;;;;;;;;;13.50;12.50;;;;;17.78;50.12;102284.53;2391485;28;45449;-89
2022/05/09 01:31:19;;;;;;;;;15.00;13.50;;;;;17.75;49.85;102282.88;2402601;28;45373;-89
2022/05/09 01:32:56;;;;;;;;;18.50;13.75;;;;;17.76;49.73;102284.63;2393109;28;46126;-87
2022/05/09 01:34:09;;;;;;;;;14.25;11.25;;;;;17.74;49.98;102283.81;2397840;28;44711;-88
2022/05/09 01:35:24;;;;;;;;;15.25;11.75;;;;;17.74;49.83;102291.78;2390361;28;48048;-88
2022/05/09 01:36:36;;;;;;;;;13.75;11.50;;;;;17.72;49.79;102288.31;2393539;28;44688;-88
2022/05/09 01:37:52;;;;;;;;;10.50;10.50;;;;;17.73;50.17;102283.88;2392375;28;47367;-89
2022/05/09 01:39:05;;;;;;;;;18.50;12.50;;;;;17.72;50.19;102288.31;2396018;28;45481;-86
2022/05/09 01:40:16;;;;;;;;;14.75;11.75;;;;;17.70;50.29;102282.22;2392911;28;48420;-87
2022/05/09 01:41:29;;;;;;;;;11.75;11.50;;;;;17.72;50.16;102293.66;2397053;28;45203;-87
2022/05/09 01:42:43;;;;;;;;;15.25;13.00;;;;;17.69;50.16;102283.13;2404080;28;45379;-87
2022/05/09 01:43:57;;;;;;;;;13.25;11.50;;;;;17.69;50.13;102291.09;2401114;28;45484;-88
2022/05/09 01:45:09;;;;;;;;;10.25;10.25;;;;;17.68;49.81;102288.50;2404101;28;46518;-87
2022/05/09 01:46:23;;;;;;;;;14.25;11.25;;;;;17.68;50.20;102286.69;2403486;28;45427;-87
2022/05/09 01:50:31;;;;;;;;;15.25;11.00;;;;;17.61;49.73;102291.38;2401861;28;45404;-93
2022/05/09 01:51:46;;;;;;;;;12.25;12.25;;;;;17.59;50.31;102295.03;2394391;28;44727;-92
2022/05/09 01:52:56;;;;;;;;;10.50;10.25;;;;;17.57;50.02;102289.78;2388489;28;47432;-93
2022/05/09 01:54:07;;;;;;;;;14.00;11.50;;;;;17.58;49.96;102294.16;2390594;28;44667;-93
2022/05/09 01:55:18;;;;;;;;;13.75;13.50;;;;;17.54;50.32;102290.75;2385173;28;48245;-92
2022/05/09 01:56:31;;;;;;;;;12.00;12.00;;;;;17.56;50.04;102295.16;2384917;28;45240;-92
2022/05/09 01:57:42;;;;;;;;;10.50;10.50;;;;;17.50;49.84;102293.59;2387864;28;46153;-92
2022/05/09 01:58:52;;;;;;;;;11.00;9.50;;;;;17.51;50.04;102296.19;2394073;28;45311;-92
2022/05/09 02:00:05;;;;;;;;;11.00;11.00;;;;;17.51;50.21;102297.97;2387139;28;47336;-88
2022/05/09 02:01:17;;;;;;;;;12.00;10.25;;;;;17.50;50.35;102285.63;2387683;28;44662;-84
2022/05/09 02:02:27;;;;;;;;;13.75;11.00;;;;;17.47;49.67;102281.28;2389491;28;46534;-90
2022/05/09 02:03:38;;;;;;;;;10.25;10.25;;;;;17.46;49.62;102289.34;2395441;28;44783;-88
2022/05/09 02:04:49;;;;;;;;;12.25;11.25;;;;;17.44;50.03;102294.69;2394987;28;47606;-88
2022/05/09 02:06:00;;;;;;;;;14.00;11.25;;;;;17.43;49.68;102287.66;2399236;28;45408;-89
2022/05/09 02:07:13;;;;;;;;;13.50;10.50;;;;;17.43;50.00;102296.47;2391692;28;46293;-89
2022/05/09 02:08:23;;;;;;;;;14.00;10.25;;;;;17.41;49.65;102286.81;2387803;28;45248;-88
2022/05/09 02:09:34;;;;;;;;;11.75;10.75;;;;;17.43;50.11;102287.66;2391819;28;48258;-88
2022/05/09 02:10:44;;;;;;;;;14.00;12.75;;;;;17.40;49.89;102288.63;2395427;28;45196;-89
2022/05/09 02:11:54;;;;;;;;;11.00;11.00;;;;;17.38;49.81;102287.81;2392880;28;47029;-90
2022/05/09 02:13:05;;;;;;;;;13.25;12.25;;;;;17.39;49.82;102286.00;2387158;28;44672;-90
2022/05/09 02:14:15;;;;;;;;;12.50;12.00;;;;;17.40;49.81;102285.09;2387250;28;46902;-91
2022/05/09 02:15:31;;;;;;;;;13.00;11.25;;;;;17.40;49.97;102290.41;2396841;28;45168;-91
2022/05/09 02:16:41;;;;;;;;;13.25;12.25;;;;;17.39;49.97;102286.88;2401973;28;48281;-94
2022/05/09 02:17:51;;;;;;;;;12.25;12.25;;;;;17.38;49.68;102290.47;2392282;28;45406;-87
2022/05/09 02:19:04;;;;;;;;;11.00;10.25;;;;;17.35;49.51;102285.28;2395768;28;45321;-88
2022/05/09 02:20:14;;;;;;;;;10.50;10.25;;;;;17.35;49.96;102289.72;2401789;28;44526;-88
2022/05/09 02:21:25;;;;;;;;;10.00;10.00;;;;;17.32;49.97;102278.28;2403730;28;45338;-88
2022/05/09 02:22:36;;;;;;;;;9.00;8.50;;;;;17.30;49.99;102279.25;2403230;28;45192;-90
2022/05/09 02:23:47;;;;;;;;;10.25;9.50;;;;;17.32;49.45;102288.03;2393731;28;47206;-91
2022/05/09 02:24:57;;;;;;;;;13.25;9.75;;;;;17.30;49.73;102280.13;2386421;28;45374;-87
2022/05/09 02:26:09;;;;;;;;;8.25;7.00;;;;;17.31;49.69;102280.97;2378022;28;47321;-86
2022/05/09 02:27:19;;;;;;;;;9.25;7.75;;;;;17.27;50.20;102277.59;2386857;28;45409;-92
2022/05/09 02:28:30;;;;;;;;;10.25;10.00;;;;;17.27;50.15;102280.25;2394047;28;46382;-89
2022/05/09 02:29:42;;;;;;;;;11.75;9.50;;;;;17.27;50.43;102277.59;2392514;28;44785;-92
2022/05/09 02:30:52;;;;;;;;;9.75;7.00;;;;;17.26;50.05;102278.50;2391937;28;48140;-92
2022/05/09 02:32:03;;;;;;;;;10.50;9.25;;;;;17.26;50.17;102278.50;2393953;28;44594;-93
2022/05/09 02:33:14;;;;;;;;;8.75;8.25;;;;;17.24;50.29;102284.78;2388275;28;47439;-93
2022/05/09 02:34:25;;;;;;;;;8.75;8.75;;;;;17.23;50.26;102281.28;2389355;28;45308;-92
2022/05/09 02:35:37;;;;;;;;;10.75;10.00;;;;;17.21;49.83;102283.97;2386914;28;47067;-91
2022/05/09 02:36:47;;;;;;;;;10.50;8.75;;;;;17.19;50.05;102277.84;2381286;28;45407;-91
2022/05/09 02:37:58;;;;;;;;;12.50;10.00;;;;;17.18;49.83;102285.91;2396446;28;46876;-91
2022/05/09 02:39:08;;;;;;;;;9.00;9.00;;;;;17.14;50.07;102279.78;2394158;28;45255;-91
2022/05/09 02:40:18;;;;;;;;;11.75;9.25;;;;;17.11;50.08;102274.59;2386402;28;45932;-88
2022/05/09 02:41:30;;;;;;;;;10.50;10.25;;;;;17.09;49.89;102276.41;2386737;28;44834;-87
2022/05/09 02:42:40;;;;;;;;;8.75;8.25;;;;;17.08;50.08;102275.59;2396602;28;45423;-88
2022/05/09 02:43:51;;;;;;;;;7.25;7.25;;;;;17.08;49.95;102277.38;2395112;28;45658;-87
2022/05/09 02:45:02;;;;;;;;;8.00;7.50;;;;;17.07;49.97;102279.16;2394143;28;45471;-86
2022/05/09 02:46:13;;;;;;;;;10.50;7.25;;;;;17.07;50.45;102271.19;2385935;28;45284;-86
2022/05/09 02:47:26;;;;;;;;;10.25;8.25;;;;;17.05;50.18;102273.03;2388975;28;46603;-87
2022/05/09 02:48:37;;;;;;;;;10.50;9.75;;;;;17.06;50.05;102273.91;2384678;28;45307;-87
2022/05/09 02:49:48;;;;;;;;;11.75;10.50;;;;;17.05;50.35;102270.38;2393122;28;46568;-87
2022/05/09 02:50:58;;;;;;;;;8.25;8.25;;;;;17.03;50.03;102277.53;2395188;28;45477;-87
2022/05/09 02:52:08;;;;;;;;;11.00;9.75;;;;;17.00;49.91;102272.31;2393517;28;46284;-87
2022/05/09 02:53:19;;;;;;;;;8.50;8.50;;;;;17.01;49.82;102279.38;2394338;28;44744;-87
2022/05/09 02:54:29;;;;;;;;;9.50;8.25;;;;;16.97;49.74;102275.06;2387730;28;47072;-87
2022/05/09 02:55:39;;;;;;;;;8.75;8.00;;;;;16.96;50.02;102274.22;2384020;28;44665;-87
2022/05/09 02:56:50;;;;;;;;;7.75;7.75;;;;;16.95;50.14;102274.28;2377522;28;46917;-87
2022/05/09 02:58:01;;;;;;;;;9.75;9.25;;;;;16.95;50.08;102275.16;2392657;28;45397;-90
2022/05/09 02:59:12;;;;;;;;;8.75;8.75;;;;;16.92;49.70;102263.75;2402175;28;47212;-90
2022/05/09 03:00:25;;;;;;;;;8.75;7.25;;;;;16.93;49.79;102266.38;2393685;28;45507;-92
2022/05/09 03:01:35;;;;;;;;;9.50;9.00;;;;;16.94;50.17;102272.56;2396971;28;45317;-90
2022/05/09 03:04:38;;;;;;;;;11.00;10.25;;;;;16.94;50.45;102272.56;2384272;28;45251;-91
2022/05/09 03:05:47;;;;;;;;;9.00;8.75;;;;;16.91;50.54;102267.34;2394395;28;45220;-90
2022/05/09 03:06:58;;;;;;;;;10.75;8.25;;;;;16.90;50.69;102266.47;2393455;28;48556;-91
2022/05/09 03:08:11;;;;;;;;;10.25;9.50;;;;;16.89;50.15;102266.53;2380135;28;45501;-90
2022/05/09 03:09:21;;;;;;;;;7.50;7.50;;;;;16.89;50.17;102269.19;2387299;28;45514;-89
2022/05/09 03:10:31;;;;;;;;;13.25;9.75;;;;;16.86;50.07;102265.72;2393434;28;45367;-92
2022/05/09 03:11:42;;;;;;;;;11.50;8.75;;;;;16.82;50.14;102269.41;2402878;28;45466;-92
2022/05/09 03:12:52;;;;;;;;;11.50;8.75;;;;;16.81;50.19;102272.13;2393581;28;45324;-92
2022/05/09 03:14:03;;;;;;;;;12.00;9.75;;;;;16.79;50.12;102263.34;2396603;28;46488;-93
2022/05/09 03:15:14;;;;;;;;;10.25;9.25;;;;;16.76;49.56;102269.63;2387135;28;45253;-91
2022/05/09 03:16:24;;;;;;;;;12.25;9.75;;;;;16.77;49.92;102266.03;2380343;28;47355;-93
2022/05/09 03:17:34;;;;;;;;;10.25;7.75;;;;;16.74;50.23;102260.84;2387155;28;45233;-92
2022/05/09 03:18:45;;;;;;;;;10.50;10.00;;;;;16.74;50.21;102264.34;2386535;28;47277;-92
2022/05/09 03:19:57;;;;;;;;;11.00;9.00;;;;;16.75;50.21;102260.78;2383793;28;45306;-90
2022/05/09 03:21:08;;;;;;;;;12.25;11.25;;;;;16.74;50.05;102266.16;2377595;28;46365;-92
2022/05/09 03:22:18;;;;;;;;;9.50;8.50;;;;;16.74;49.68;102263.50;2384598;28;44735;-94
2022/05/09 03:23:28;;;;;;;;;17.25;9.75;;;;;16.72;50.01;102263.53;2381448;28;47007;-94
2022/05/09 03:24:39;;;;;;;;;11.75;10.50;;;;;16.73;50.24;102269.72;2389950;28;45493;-90
2022/05/09 03:25:50;;;;;;;;;12.25;9.75;;;;;16.69;50.22;102253.00;2387961;28;47150;-91
2022/05/09 03:27:03;;;;;;;;;8.50;8.50;;;;;16.69;50.29;102254.81;2386850;28;45295;-87
2022/05/09 03:28:19;;;;;;;;;5.50;5.50;;;;;16.68;50.19;102259.25;2384850;28;48114;-86
2022/05/09 03:29:31;;;;;;;;;9.25;8.25;;;;;16.69;50.16;102263.63;2387537;28;44764;-85
2022/05/09 03:30:43;;;;;;;;;8.25;8.00;;;;;16.69;50.05;102263.63;2393570;28;47222;-85
2022/05/09 03:31:53;;;;;;;;;14.00;9.00;;;;;16.66;50.21;102253.16;2403076;28;45271;-86
2022/05/09 03:33:04;;;;;;;;;11.75;9.25;;;;;16.65;50.10;102257.59;2393068;28;46225;-86
2022/05/09 03:34:15;;;;;;;;;10.75;9.25;;;;;16.62;49.92;102255.03;2391245;28;44599;-86
2022/05/09 03:35:25;;;;;;;;;11.00;9.00;;;;;16.63;49.94;102264.72;2392717;28;45384;-86
2022/05/09 03:36:36;;;;;;;;;9.75;8.25;;;;;16.62;50.11;102257.69;2403522;28;45163;-87
2022/05/09 03:37:46;;;;;;;;;6.25;6.25;;;;;16.62;50.52;102257.69;2394632;28;46416;-88
2022/05/09 03:38:57;;;;;;;;;10.50;7.75;;;;;16.62;49.95;102263.00;2398901;28;45236;-88
2022/05/09 03:40:09;;;;;;;;;9.50;8.25;;;;;16.62;50.09;102262.13;2402905;28;45438;-88
2022/05/09 03:41:20;;;;;;;;;8.50;7.25;;;;;16.58;50.17;102260.50;2392054;28;44822;-88
2022/05/09 03:42:31;;;;;;;;;10.00;10.00;;;;;16.58;49.99;102256.06;2393220;28;48256;-89
2022/05/09 03:43:41;;;;;;;;;9.75;9.50;;;;;16.60;50.07;102262.19;2396124;28;45457;-88
2022/05/09 03:44:51;;;;;;;;;12.50;8.50;;;;;16.57;50.26;102259.63;2392873;28;46879;-89
2022/05/09 03:46:02;;;;;;;;;10.50;9.25;;;;;16.57;50.10;102264.94;2395768;28;45418;-89
2022/05/09 03:47:13;;;;;;;;;10.25;6.25;;;;;16.56;49.73;102257.91;2398329;28;45290;-88
2022/05/09 03:48:23;;;;;;;;;10.00;7.75;;;;;16.51;50.13;102251.88;2395255;28;45190;-89
2022/05/09 03:49:35;;;;;;;;;11.75;10.00;;;;;16.52;50.31;102258.91;2393146;28;47385;-88
2022/05/09 03:50:45;;;;;;;;;11.25;9.00;;;;;16.50;50.04;102258.09;2395945;28;45296;-89
2022/05/09 03:51:56;;;;;;;;;8.50;8.00;;;;;16.49;50.13;102251.06;2403280;28;46139;-91
2022/05/09 03:53:06;;;;;;;;;7.75;7.25;;;;;16.48;50.59;102257.28;2400036;28;45459;-91
2022/05/09 03:54:16;;;;;;;;;9.25;7.25;;;;;16.48;50.58;102251.97;2383966;28;46991;-90
2022/05/09 03:55:27;;;;;;;;;9.50;8.00;;;;;16.47;50.48;102264.38;2392950;28;45526;-91
2022/05/09 03:56:37;;;;;;;;;8.50;7.00;;;;;16.46;50.66;102256.47;2399012;28;48222;-91
2022/05/09 03:57:50;;;;;;;;;9.25;8.25;;;;;16.41;50.17;102262.81;2393247;28;45199;-92
2022/05/09 03:59:01;;;;;;;;;12.75;9.75;;;;;16.41;50.71;102254.84;2386897;28;47895;-93
2022/05/09 04:00:12;;;;;;;;;10.50;8.50;;;;;16.39;50.14;102264.66;2396101;28;45448;-92
2022/05/09 04:01:22;;;;;;;;;11.00;7.25;;;;;16.36;50.27;102267.41;2398220;28;45456;-93
2022/05/09 04:02:33;;;;;;;;;9.25;9.00;;;;;16.33;50.65;102264.84;2385473;28;44633;-93
2022/05/09 04:03:43;;;;;;;;;14.75;11.50;;;;;16.34;50.40;102274.56;2393587;28;47585;-95
2022/05/09 04:04:53;;;;;;;;;13.25;10.25;;;;;16.34;50.29;102263.06;2390177;28;45282;-94
2022/05/09 04:06:05;;;;;;;;;11.50;10.00;;;;;16.32;50.66;102273.75;2388246;28;48177;-93
2022/05/09 04:07:19;;;;;;;;;10.50;9.00;;;;;16.29;50.27;102263.22;2389450;28;46427;-91
2022/05/09 04:08:30;;;;;;;;;10.75;9.50;;;;;16.29;50.61;102266.75;2394089;28;45323;-92
2022/05/09 04:09:40;;;;;;;;;8.50;7.75;;;;;16.29;50.32;102266.75;2394038;28;44696;-92
2022/05/09 04:10:53;;;;;;;;;11.50;9.75;;;;;16.28;50.95;102265.00;2401677;28;45266;-88
2022/05/09 04:12:04;;;;;;;;;11.75;10.00;;;;;16.29;51.05;102263.22;2392677;28;45189;-88
2022/05/09 04:13:15;;;;;;;;;13.25;10.50;;;;;16.27;50.64;102271.22;2388439;28;46848;-86
2022/05/09 04:17:24;;;;;;;;;10.50;9.25;;;;;16.26;50.88;102274.81;2393936;28;45480;-86
2022/05/09 04:18:39;;;;;;;;;11.75;9.50;;;;;16.24;50.78;102268.69;2394725;28;47419;-86
2022/05/09 04:19:49;;;;;;;;;12.75;11.00;;;;;16.24;51.03;102267.81;2402733;28;45400;-86
2022/05/09 04:21:00;;;;;;;;;9.00;9.00;;;;;16.22;50.66;102269.66;2396802;28;45445;-85
2022/05/09 04:22:10;;;;;;;;;10.75;8.25;;;;;16.20;51.20;102265.25;2396892;28;45209;-85
2022/05/09 04:23:22;;;;;;;;;10.25;9.50;;;;;16.19;50.76;102263.53;2394819;28;45415;-85
2022/05/09 04:24:33;;;;;;;;;11.00;9.75;;;;;16.18;51.05;102264.44;2393590;28;44605;-85
2022/05/09 04:25:44;;;;;;;;;16.75;10.25;;;;;16.17;51.44;102267.97;2401033;28;47233;-85
2022/05/09 04:26:56;;;;;;;;;13.00;8.25;;;;;16.18;51.06;102260.91;2398929;28;45337;-85
2022/05/09 04:28:07;;;;;;;;;10.50;10.00;;;;;16.17;51.06;102265.34;2402380;28;45343;-84
2022/05/09 04:29:17;;;;;;;;;12.00;9.50;;;;;16.18;51.44;102258.25;2402318;28;44730;-85
2022/05/09 04:30:29;;;;;;;;;14.00;12.00;;;;;16.17;51.53;102262.69;2398538;28;45403;-84
2022/05/09 04:31:39;;;;;;;;;10.75;9.50;;;;;16.18;51.34;102268.84;2395167;28;45262;-83
2022/05/09 04:32:49;;;;;;;;;15.75;12.50;;;;;16.17;51.24;102269.78;2395977;28;45512;-84
2022/05/09 04:34:00;;;;;;;;;11.50;11.50;;;;;16.15;51.24;102264.53;2405320;28;45449;-82
2022/05/09 04:35:17;;;;;;;;;15.75;9.50;;;;;16.15;51.15;102269.81;2393467;28;45618;-82
2022/05/09 04:36:28;;;;;;;;;9.75;8.50;;;;;16.12;51.20;102264.66;2401255;28;45354;-82
2022/05/09 04:37:39;;;;;;;;;15.50;11.25;;;;;16.12;51.34;102267.28;2402716;28;46233;-83
2022/05/09 04:38:51;;;;;;;;;13.50;12.25;;;;;16.12;51.40;102267.28;2400598;28;45297;-83
2022/05/09 04:40:02;;;;;;;;;11.25;10.75;;;;;16.11;51.46;102268.19;2396976;28;45492;-84
2022/05/09 04:41:13;;;;;;;;;12.50;11.50;;;;;16.10;51.27;102265.59;2402367;28;45390;-83
2022/05/09 04:42:24;;;;;;;;;11.50;10.00;;;;;16.08;51.40;102262.97;2402442;28;45367;-83
2022/05/09 04:43:36;;;;;;;;;11.75;9.75;;;;;16.07;51.41;102262.16;2394028;28;45251;-83
2022/05/09 04:44:46;;;;;;;;;10.50;10.50;;;;;16.05;51.22;102263.09;2396335;28;46532;-85
2022/05/09 04:46:03;;;;;;;;;12.75;10.00;;;;;16.05;51.24;102261.28;2392265;28;45221;-89
2022/05/09 04:47:13;;;;;;;;;11.50;10.00;;;;;16.02;51.56;102260.50;2387200;28;47500;-94
2022/05/09 04:48:24;;;;;;;;;9.75;9.75;;;;;16.02;51.97;102261.38;2390153;28;44659;-93
2022/05/09 04:49:34;;;;;;;;;11.75;9.50;;;;;16.02;51.63;102258.72;2386079;28;47393;-93
2022/05/09 04:50:45;;;;;;;;;11.50;10.50;;;;;16.04;51.60;102261.31;2384916;28;44707;-90
2022/05/09 04:51:55;;;;;;;;;12.50;9.75;;;;;16.02;51.66;102261.38;2386216;28;46524;-88
2022/05/09 04:53:05;;;;;;;;;11.75;11.50;;;;;16.04;51.53;102266.63;2391248;28;44688;-91
2022/05/09 04:54:16;;;;;;;;;9.50;9.25;;;;;16.00;51.58;102257.03;2395612;28;45343;-87
2022/05/09 04:55:26;;;;;;;;;12.25;11.25;;;;;16.04;51.67;102266.63;2402715;28;45333;-90
2022/05/09 04:56:36;;;;;;;;;13.50;10.75;;;;;16.03;51.62;102271.06;2399238;28;45357;-89
2022/05/09 04:57:50;;;;;;;;;12.75;10.50;;;;;16.05;51.80;102279.88;2389123;28;45223;-93
2022/05/09 04:59:01;;;;;;;;;12.75;9.50;;;;;16.06;52.38;102272.78;2391804;28;47068;-92
2022/05/09 05:00:16;;;;;;;;;12.00;9.50;;;;;16.06;51.63;102278.97;2391965;28;45438;-92
2022/05/09 05:01:26;;;;;;;;;12.75;10.50;;;;;16.06;51.60;102275.44;2386969;28;47304;-92
2022/05/09 05:02:37;;;;;;;;;11.50;9.50;;;;;16.06;51.76;102272.78;2391198;28;45322;-92
2022/05/09 05:03:47;;;;;;;;;13.00;11.75;;;;;16.06;51.69;102275.44;2385881;28;47088;-91
2022/05/09 05:04:57;;;;;;;;;15.75;11.00;;;;;16.08;51.63;102274.47;2385009;28;45562;-94
2022/05/09 05:06:08;;;;;;;;;12.25;10.00;;;;;16.06;52.06;102262.16;2390575;28;47389;-91
2022/05/09 05:07:18;;;;;;;;;14.50;10.75;;;;;16.08;51.82;102269.16;2392302;28;45369;-92
2022/05/09 05:08:33;;;;;;;;;13.25;12.25;;;;;16.08;51.97;102262.97;2388421;28;46922;-92
2022/05/09 05:09:43;;;;;;;;;16.75;13.00;;;;;16.08;52.24;102262.97;2385953;28;45686;-92
2022/05/09 05:10:54;;;;;;;;;11.25;10.00;;;;;16.07;51.56;102262.16;2389704;28;47994;-92
2022/05/09 05:12:05;;;;;;;;;11.50;9.50;;;;;16.07;51.80;102255.97;2397410;28;45258;-89
2022/05/09 05:13:15;;;;;;;;;11.75;9.25;;;;;16.09;51.85;102264.72;2398607;28;48030;-87
2022/05/09 05:14:25;;;;;;;;;12.00;11.00;;;;;16.07;51.66;102261.28;2390569;28;44709;-89
2022/05/09 05:15:36;;;;;;;;;14.50;12.50;;;;;16.05;51.57;102258.66;2381877;28;46728;-88
2022/05/09 05:17:01;;;;;;;;;13.75;11.50;;;;;16.07;51.67;102261.28;2386953;28;45313;-87
2022/05/09 05:18:11;;;;;;;;;10.25;9.75;;;;;16.08;51.39;102269.16;2397867;28;46384;-89
2022/05/09 05:19:22;;;;;;;;;13.00;11.00;;;;;16.02;51.76;102257.84;2404474;28;45259;-88
2022/05/09 05:20:32;;;;;;;;;12.50;9.75;;;;;16.06;51.58;102264.81;2392540;28;48371;-89
2022/05/09 05:21:43;;;;;;;;;11.50;11.50;;;;;16.07;51.92;102275.41;2389396;28;45172;-89
2022/05/09 05:22:55;;;;;;;;;13.50;10.75;;;;;16.06;51.94;102276.31;2386788;28;47247;-88
2022/05/09 05:24:06;;;;;;;;;11.00;10.50;;;;;16.08;51.62;102271.81;2383447;28;45311;-88
2022/05/09 05:25:22;;;;;;;;;12.25;11.00;;;;;16.12;51.88;102277.91;2395646;28;46563;-86
2022/05/09 05:26:32;;;;;;;;;10.50;10.25;;;;;16.12;51.61;102277.91;2393173;28;45465;-89
2022/05/09 05:27:43;;;;;;;;;12.50;12.25;;;;;16.11;51.77;102273.50;2386566;28;46995;-88
2022/05/09 05:28:53;;;;;;;;;16.50;10.25;;;;;16.09;51.38;102275.34;2402067;28;45228;-88
2022/05/09 05:30:05;;;;;;;;;11.50;9.50;;;;;16.08;51.42;102276.25;2402166;28;47126;-89
2022/05/09 05:31:18;;;;;;;;;13.50;10.75;;;;;16.06;51.60;102275.44;2393555;28;45315;-89
2022/05/09 05:32:34;;;;;;;;;10.50;10.50;;;;;16.04;51.56;102278.16;2389626;28;47286;-89
2022/05/09 05:33:44;;;;;;;;;12.75;11.75;;;;;16.08;51.72;102276.25;2387343;28;44856;-88
2022/05/09 05:34:55;;;;;;;;;16.75;13.25;;;;;16.07;51.50;102278.06;2384271;28;48304;-89
2022/05/09 05:36:05;;;;;;;;;11.25;10.25;;;;;16.10;52.05;102278.88;2396068;28;44733;-88
2022/05/09 05:37:18;;;;;;;;;15.50;11.25;;;;;16.11;51.48;102273.50;2403712;28;46188;-90
2022/05/09 05:38:28;;;;;;;;;15.75;11.00;;;;;16.11;51.84;102278.81;2388147;28;45412;-87